RESULTATS »

INSCRITS PRESENTATS ACABEN RETIRATS DESQUALIFICATS DIST. TRAM 1 DIST. TRAM 2 DIST. TRAM 3 TEMP. EXT TEMP. AIGUA
225 204 197 7 0 5 24 2 0 0

CLASSIFICACIÓ

MASCULÍ FEMENÍ CATEGORIES CLUBS (MASCULINA) CLUBS (FEMENINA) INDIVIDUALS GRUPS D'EDAT

LLOCDORSALNOMCLUBCAT.T.META| P.Tram 1 || P.Tram 2 |Km/hTEMPS| P.Tram 3 |PARC_1PARC_2
1 5143MARTA SANCHEZ HERNANDEZC.N. VIC-ETBSUB23F01:12:129200:18:027900:44:5132.1101:02:536400:09:190:00:000:00:00
2 1953TXELL JARQUE PUJALSABSOLUT SPORTJNF01:13:186000:17:1411200:47:1830.4401:04:323300:08:460:00:000:00:00
3 5080PAULA BATLLE I PLANTADACERDANYOLA CHJNF01:13:30000:00:00000:00:000.0000:00:00000:00:000:00:000:00:00
4 1859VERÓNICA ANDREA AVENI RAPC.N. VIC-ETBV1F01:14:109400:18:0310000:46:2331.0501:04:269000:09:440:00:000:00:00
5 21AIDA FABREGA ARGERICHC.N. REUS PLOMSABF01:16:3011800:19:0311300:47:2130.4101:06:2411000:10:060:00:000:00:00
6 121PILAR RUS GARCIAC.N. REUS PLOMSV1F01:17:079100:18:0213500:49:3029.0901:07:327800:09:350:00:000:00:00
7 5027MARTA ROMANCE OMSC.N. SABADELLCDF01:17:5612200:19:0812700:49:0829.3101:08:168400:09:400:00:000:00:00
8 6077ANNA SANTIDRIAN BOUCLUB TRI5UABF01:19:2112100:19:0715100:51:0428.2001:10:115700:09:100:00:000:00:00
9 1810PILAR GUTÉS NAVARROPRAT TRIATLO 1994V1F01:19:2413600:19:3513800:49:4728.9301:09:2210400:10:020:00:000:00:00
10 1937MONTSERRAT CINCA PATOC.N. REUS PLOMSV2F01:20:1516000:20:4413000:49:1729.2201:10:0111600:10:140:00:000:00:00
11 64GEMMA DIAZ RUIZPRAT TRIATLO 1994CDF01:20:3915900:20:4413200:49:2129.1801:10:0513500:10:340:00:000:00:00
12 3594MIREIA PONS TORRESCERDANYOLA CHABF01:21:1314200:19:5015500:51:1628.0901:11:0611100:10:070:00:000:00:00
13 1988BELEN HIDALGO VALLSCERDANYOLA CHV1F01:21:2514400:19:5715800:51:3327.9301:11:309300:09:550:00:000:00:00
14 6049ADRIANA LÓPEZ ULLODABSOLUT SPORTABF01:21:4212900:19:2015900:51:5327.7501:11:1312900:10:290:00:000:00:00
15 1982LAIA RIERA GONZALEZCLUB TRIATLO GRANOLLERSABF01:21:4516900:21:0612600:49:0229.3701:10:0816800:11:370:00:000:00:00
16 5038ADELAIDA CABO PAVIAABSOLUT SPORTABF01:22:4117700:22:1113100:49:1829.2101:11:2915500:11:120:00:000:00:00
17 1961NURIA LLAGOSTERA PAJUELOPRAT TRIATLO 1994ABF01:23:2816600:21:0315200:51:0828.1601:12:1115800:11:170:00:000:00:00
18 5029ANNA VIÑOLAS RAMISAC.N. VIC-ETBABF01:25:1017600:22:0715000:50:5228.3101:12:5917800:12:110:00:000:00:00
19 6071ESTEFANIA CHAMORRO I PADICLUB TRI-BUCDF01:25:2715100:20:0617200:54:1026.5801:14:1615300:11:110:00:000:00:00
20 6076OPAL ROBLES ZENDRERACLUB TRI5UABF01:25:3617100:21:1017000:53:5926.6701:15:0912300:10:270:00:000:00:00
21 5034JULIA LEIRADO SILVAABSOLUT SPORTABF01:25:5217400:21:2416900:53:2926.9201:14:5314700:10:590:00:000:00:00
22 6050ANDREA SOLDEVILA SANCHEZCLUB TRIATLO GRANOLLERSJNF01:27:0017900:22:4916300:52:3527.3901:15:2416700:11:360:00:000:00:00
23 1958KARLA ROSELL REYNAC.N. VIC-ETBJNF01:28:5818700:23:3216600:53:0527.1301:16:3718000:12:210:00:000:00:00
24 1930YOLANDA LOPEZ BERDUMCLUB TRIATLO GRANOLLERSABF01:29:0617000:21:0918000:56:1325.6201:17:2217000:11:440:00:000:00:00
25 5179PAULA HUERTAS CASTEJONCLUB TRI5UABF01:29:4116700:21:0418300:57:2225.1001:18:2615600:11:150:00:000:00:00
26 128SAMANTHA ARISTA RIVASC.N. SABADELLJNF01:30:0015800:20:3918400:57:3325.0201:18:1217200:11:480:00:000:00:00
27 1851MARTA SANCHEZ SALINASCLUB TRIATLO L´EIX DE NAVV1F01:33:1418000:22:5018800:58:4424.5201:21:3416900:11:400:00:000:00:00
28 8003CINDY ANGEL TRUJILLOLLICENCIA DE DIAABF01:33:3319400:26:2916800:53:2426.9701:19:5319200:13:400:00:000:00:00
29 3541MERCEDES SANCHEZ-CORTES MCLUB TRIATLO GRANOLLERSABF01:34:1318600:23:2818500:57:3425.0101:21:0218700:13:110:00:000:00:00
30 6204JÚLIA PASCUALCLUB PROAMSUB23F01:36:5618400:23:2719201:00:5223.6601:24:1918300:12:370:00:000:00:00
31 1971ANNA BARBA SOLERCLUB NATACIO BANYOLESV2F01:36:5918800:23:4419301:01:0523.5701:24:4917700:12:100:00:000:00:00
32 78LAURA GIL CASQUETECLUB TRI5UABF01:37:2819200:25:1818700:58:3624.5701:23:5419100:13:340:00:000:00:00
33 8005ANNA VILADIU ILLANASLLICENCIA DE DIAV1F01:38:3419300:25:1818901:00:0323.9801:25:2118900:13:130:00:000:00:00
34 5088ADELA FONT LLORELLACLUB NATACIO BANYOLESV1F01:38:3419100:25:1719001:00:0523.9701:25:2218800:13:120:00:000:00:00
35 3505NOEMI APARICIO CABANILLASC.N. SABADELLABF01:39:2019000:24:3419401:01:3923.3601:26:1318600:13:070:00:000:00:00






FEDERACIÓ CATALANA DE TRIATLÓ
SEU CENTRAL I CORRESPONDÈNCIA: Rambla Guipúscoa 23-25 2on-D · 08018 Barcelona · Tel / Fax : 93 307 93 35
ATENCIÓ AL PÚBLIC: Passeig Joan de Borbó, 93 (Club Natació Barcelona) · 08039 Barcelona · Tel / Fax : 93 307 93 32